createdAt,value
2022-09-28T00:00:14.214Z,8.70
2022-09-28T00:03:36.230Z,8.70
2022-09-28T00:06:57.781Z,8.70
2022-09-28T00:10:20.764Z,8.70
2022-09-28T00:13:42.752Z,8.70
2022-09-28T00:17:04.332Z,8.70
2022-09-28T00:20:25.888Z,8.70
2022-09-28T00:23:47.676Z,8.70
2022-09-28T00:27:10.579Z,8.60
2022-09-28T00:30:32.141Z,8.70
2022-09-28T00:33:54.506Z,8.70
2022-09-28T00:37:16.054Z,8.70
2022-09-28T00:40:37.648Z,8.70
2022-09-28T00:44:18.055Z,8.80
2022-09-28T00:47:43.029Z,8.80
2022-09-28T00:51:06.724Z,8.90
2022-09-28T00:54:28.430Z,8.90
2022-09-28T00:57:52.115Z,8.90
2022-09-28T01:01:13.782Z,8.90
2022-09-28T01:04:37.078Z,8.90
2022-09-28T01:07:58.648Z,9.00
2022-09-28T01:11:20.223Z,9.00
2022-09-28T01:14:42.619Z,9.00
2022-09-28T01:18:11.452Z,9.10
2022-09-28T01:21:38.108Z,9.10
2022-09-28T01:25:04.630Z,9.10
2022-09-28T01:28:28.489Z,9.20
2022-09-28T01:31:51.786Z,9.20
2022-09-28T01:35:14.406Z,9.20
2022-09-28T01:38:37.946Z,9.20
2022-09-28T01:42:03.002Z,9.20
2022-09-28T01:45:27.990Z,9.20
2022-09-28T01:48:51.459Z,9.20
2022-09-28T01:52:15.857Z,9.30
2022-09-28T01:55:40.689Z,9.30
2022-09-28T01:59:05.920Z,9.30
2022-09-28T02:02:32.011Z,9.30
2022-09-28T02:05:56.034Z,9.30
2022-09-28T02:09:19.485Z,9.30
2022-09-28T02:12:42.863Z,9.30
2022-09-28T02:16:06.057Z,9.30
2022-09-28T02:19:29.952Z,9.30
2022-09-28T02:22:53.392Z,9.30
2022-09-28T02:26:15.504Z,9.40
2022-09-28T02:29:37.063Z,9.40
2022-09-28T02:33:00.925Z,9.50
2022-09-28T02:36:24.599Z,9.40
2022-09-28T02:39:46.221Z,9.50
2022-09-28T02:43:11.574Z,9.50
2022-09-28T02:46:39.645Z,9.60
2022-09-28T02:50:07.465Z,9.50
2022-09-28T02:53:43.763Z,9.60
2022-09-28T02:57:11.029Z,9.60
2022-09-28T03:00:34.921Z,9.60
2022-09-28T03:04:01.469Z,9.60
2022-09-28T03:07:24.450Z,9.60
2022-09-28T03:10:49.688Z,9.60
2022-09-28T03:14:11.403Z,9.60
2022-09-28T03:17:32.980Z,9.60
2022-09-28T03:20:54.625Z,9.60
2022-09-28T03:24:16.200Z,9.60
2022-09-28T03:27:39.144Z,9.60
2022-09-28T03:31:00.719Z,9.60
2022-09-28T03:34:22.291Z,9.60
2022-09-28T03:37:43.858Z,9.70
2022-09-28T03:41:05.586Z,9.70
2022-09-28T03:44:28.506Z,9.70
2022-09-28T03:47:50.091Z,9.70
2022-09-28T03:51:12.013Z,9.70
2022-09-28T03:54:33.566Z,9.60
2022-09-28T03:57:55.147Z,9.60
2022-09-28T04:01:18.427Z,9.60
2022-09-28T04:04:40.156Z,9.60
2022-09-28T04:08:01.690Z,9.60
2022-09-28T04:11:23.257Z,9.60
2022-09-28T04:14:44.808Z,9.50
2022-09-28T04:18:10.371Z,9.50
2022-09-28T04:21:31.955Z,9.50
2022-09-28T04:24:53.529Z,9.50
2022-09-28T04:28:15.421Z,9.50
2022-09-28T04:31:37.611Z,9.40
2022-09-28T04:35:00.606Z,9.50
2022-09-28T04:38:41.531Z,9.50
2022-09-28T04:42:03.726Z,9.50
2022-09-28T04:45:25.438Z,9.40
2022-09-28T04:48:47.001Z,9.30
2022-09-28T04:52:12.546Z,9.20
2022-09-28T04:55:37.437Z,9.10
2022-09-28T04:58:59.003Z,9.00
2022-09-28T05:02:20.635Z,8.90
2022-09-28T05:05:43.458Z,8.90
2022-09-28T05:09:06.567Z,8.80
2022-09-28T05:12:28.200Z,8.80
2022-09-28T05:15:56.168Z,8.80
2022-09-28T05:19:19.119Z,8.80
2022-09-28T05:22:40.710Z,8.80
2022-09-28T05:26:03.639Z,8.80
2022-09-28T05:29:27.167Z,8.80
2022-09-28T05:32:55.011Z,8.70
2022-09-28T05:36:16.586Z,8.80
2022-09-28T05:39:38.144Z,8.70
2022-09-28T05:43:01.509Z,8.70
2022-09-28T05:46:23.125Z,8.80
2022-09-28T05:49:44.734Z,8.80
2022-09-28T05:53:06.813Z,8.80
2022-09-28T05:56:29.742Z,8.80
2022-09-28T05:59:52.680Z,8.80
2022-09-28T06:03:14.533Z,8.80
2022-09-28T06:06:36.112Z,8.90
2022-09-28T06:09:57.682Z,8.90
2022-09-28T06:13:19.244Z,8.80
2022-09-28T06:16:44.005Z,8.90
2022-09-28T06:20:06.173Z,8.90
2022-09-28T06:23:27.746Z,8.90
2022-09-28T06:26:49.322Z,8.90
2022-09-28T06:30:11.430Z,8.90
2022-09-28T06:33:34.340Z,8.90
2022-09-28T06:36:55.907Z,8.90
2022-09-28T06:40:17.469Z,9.00
2022-09-28T06:43:39.044Z,9.00
2022-09-28T06:47:00.602Z,9.10
2022-09-28T06:50:23.547Z,9.10
2022-09-28T06:53:45.097Z,9.20
2022-09-28T06:57:06.701Z,9.30
2022-09-28T07:00:28.783Z,9.40
2022-09-28T07:03:54.860Z,9.50
2022-09-28T07:07:18.522Z,9.50
2022-09-28T07:10:41.859Z,9.50
2022-09-28T07:14:03.411Z,9.60
2022-09-28T07:17:25.044Z,9.60
2022-09-28T07:20:53.714Z,9.60
2022-09-28T07:24:17.837Z,9.60
2022-09-28T07:27:39.456Z,9.60
2022-09-28T07:31:01.134Z,9.60
2022-09-28T07:34:23.608Z,9.50
2022-09-28T07:37:45.324Z,9.50
2022-09-28T07:41:08.635Z,9.40
2022-09-28T07:44:30.249Z,9.40
2022-09-28T07:47:54.703Z,9.40
2022-09-28T07:51:16.236Z,9.40
2022-09-28T07:54:37.800Z,9.40
2022-09-28T07:58:00.969Z,9.50
2022-09-28T08:01:22.606Z,9.50
2022-09-28T08:04:44.209Z,9.50
2022-09-28T08:08:05.763Z,9.60
2022-09-28T08:11:27.420Z,9.70
2022-09-28T08:14:50.349Z,9.80
2022-09-28T08:18:11.965Z,9.90
2022-09-28T08:21:33.529Z,10.10
2022-09-28T08:24:55.111Z,10.20
2022-09-28T08:28:17.295Z,10.30
2022-09-28T08:31:40.181Z,10.30
2022-09-28T08:35:01.754Z,10.50
2022-09-28T08:38:23.379Z,10.60
2022-09-28T08:41:48.351Z,10.60
2022-09-28T08:45:11.993Z,10.80
2022-09-28T08:48:36.925Z,10.90
2022-09-28T08:52:00.446Z,11.00
2022-09-28T08:55:26.317Z,11.20
2022-09-28T08:58:51.586Z,11.30
2022-09-28T09:02:15.520Z,11.50
2022-09-28T09:05:48.215Z,11.80
2022-09-28T09:09:14.803Z,11.80
2022-09-28T09:12:41.622Z,11.80
2022-09-28T09:16:06.470Z,12.00
2022-09-28T09:19:34.120Z,12.00
2022-09-28T09:22:59.446Z,11.90
2022-09-28T09:26:25.670Z,12.00
2022-09-28T09:29:54.860Z,12.00
2022-09-28T09:33:33.267Z,12.10
2022-09-28T09:37:03.350Z,12.20
2022-09-28T09:40:33.155Z,12.20
2022-09-28T09:44:19.898Z,12.20
2022-09-28T09:47:42.754Z,12.10
2022-09-28T09:51:06.375Z,12.20
2022-09-28T09:54:29.886Z,12.50
2022-09-28T09:57:54.359Z,13.00
2022-09-28T10:01:17.540Z,13.10
2022-09-28T10:04:40.908Z,13.30
2022-09-28T10:08:03.996Z,13.20
2022-09-28T10:11:27.101Z,13.20
2022-09-28T10:14:50.046Z,13.30
2022-09-28T10:18:12.703Z,13.30
2022-09-28T10:21:34.424Z,13.40
2022-09-28T10:24:56.222Z,13.40
2022-09-28T10:28:20.578Z,13.10
2022-09-28T10:31:44.955Z,13.10
2022-09-28T10:35:27.250Z,13.00
2022-09-28T10:38:48.832Z,12.80
2022-09-28T10:42:12.057Z,12.60
2022-09-28T10:45:35.379Z,12.50
2022-09-28T10:48:59.741Z,12.40
2022-09-28T10:52:34.573Z,12.40
2022-09-28T10:55:57.510Z,12.40
2022-09-28T10:59:36.858Z,12.50
2022-09-28T11:02:58.889Z,12.60
2022-09-28T11:06:25.814Z,12.90
2022-09-28T11:09:48.883Z,13.20
2022-09-28T11:13:11.157Z,13.40
2022-09-28T11:16:33.668Z,13.60
2022-09-28T11:19:55.614Z,13.70
2022-09-28T11:23:20.214Z,13.60
2022-09-28T11:26:42.753Z,13.70
2022-09-28T11:30:04.917Z,13.90
2022-09-28T11:33:32.259Z,13.70
2022-09-28T11:37:01.989Z,13.80
2022-09-28T11:40:29.404Z,13.60
2022-09-28T11:43:57.012Z,13.60
2022-09-28T11:47:37.090Z,13.60
2022-09-28T11:51:01.544Z,13.70
2022-09-28T11:54:25.171Z,13.60
2022-09-28T11:57:50.435Z,13.40
2022-09-28T12:01:19.295Z,13.50
2022-09-28T12:04:42.316Z,13.90
2022-09-28T12:08:06.679Z,13.80
2022-09-28T12:11:31.071Z,14.00
2022-09-28T12:14:55.417Z,14.00
2022-09-28T12:18:20.101Z,14.10
2022-09-28T12:21:44.472Z,14.00
2022-09-28T12:25:10.205Z,13.90
2022-09-28T12:28:34.661Z,14.00
2022-09-28T12:32:02.606Z,14.00
2022-09-28T12:35:30.477Z,14.20
2022-09-28T12:42:57.022Z,14.40
2022-09-28T12:46:26.322Z,14.20
2022-09-28T12:50:36.992Z,14.20
2022-09-28T12:53:48.535Z,14.10
2022-09-28T12:57:23.272Z,14.00
2022-09-28T13:00:49.766Z,14.00
2022-09-28T13:04:29.657Z,14.00
2022-09-28T13:07:55.029Z,14.20
2022-09-28T13:11:21.043Z,14.10
2022-09-28T13:14:54.895Z,14.30
2022-09-28T13:18:20.457Z,14.50
2022-09-28T13:21:45.643Z,14.00
2022-09-28T13:25:11.574Z,14.00
2022-09-28T13:28:34.029Z,14.10
2022-09-28T13:31:57.331Z,14.00
2022-09-28T13:35:18.932Z,14.00
2022-09-28T13:38:46.049Z,14.00
2022-09-28T13:42:09.517Z,13.90
2022-09-28T13:45:34.545Z,14.00
2022-09-28T13:49:00.147Z,14.00
2022-09-28T13:52:30.492Z,14.00
2022-09-28T13:55:55.992Z,13.90
2022-09-28T13:59:22.358Z,13.80
2022-09-28T14:02:45.363Z,13.90
2022-09-28T14:06:08.329Z,13.80
2022-09-28T14:09:41.349Z,13.80
2022-09-28T14:13:05.271Z,13.80
2022-09-28T14:16:31.479Z,13.80
2022-09-28T14:19:54.718Z,13.80
2022-09-28T14:23:23.916Z,13.70
2022-09-28T14:26:56.905Z,13.60
2022-09-28T14:30:22.974Z,13.70
2022-09-28T14:33:53.517Z,13.70
2022-09-28T14:37:19.250Z,13.80
2022-09-28T14:40:57.037Z,13.80
2022-09-28T14:44:18.707Z,13.80
2022-09-28T14:47:41.336Z,13.70
2022-09-28T14:51:17.795Z,13.70
2022-09-28T14:54:43.938Z,13.50
2022-09-28T14:58:06.199Z,13.40
2022-09-28T15:01:28.235Z,13.50
2022-09-28T15:04:51.567Z,13.40
2022-09-28T15:08:13.224Z,13.30
2022-09-28T15:11:39.582Z,13.20
2022-09-28T15:15:01.902Z,13.20
2022-09-28T15:18:35.867Z,13.00
2022-09-28T15:21:57.471Z,12.90
2022-09-28T15:25:21.216Z,13.00
2022-09-28T15:28:44.795Z,12.90
2022-09-28T15:32:06.426Z,12.90
2022-09-28T15:35:28.107Z,12.80
2022-09-28T15:38:53.127Z,12.80
2022-09-28T15:42:15.166Z,12.70
2022-09-28T15:45:38.815Z,12.70
2022-09-28T15:49:01.367Z,12.60
2022-09-28T15:52:25.263Z,12.50
2022-09-28T15:55:49.750Z,12.40
2022-09-28T15:59:18.832Z,12.40
2022-09-28T16:02:56.433Z,12.20
2022-09-28T16:06:18.061Z,12.20
2022-09-28T16:09:53.145Z,12.00
2022-09-28T16:13:16.003Z,12.00
2022-09-28T16:16:46.474Z,11.90
2022-09-28T16:20:21.292Z,11.80
2022-09-28T16:23:49.742Z,11.70
2022-09-28T16:27:23.535Z,11.70
2022-09-28T16:30:59.003Z,11.60
2022-09-28T16:34:23.561Z,11.50
2022-09-28T16:37:47.628Z,11.40
2022-09-28T16:41:09.211Z,11.30
2022-09-28T16:44:30.781Z,11.20
2022-09-28T16:47:55.202Z,11.10
2022-09-28T16:51:17.074Z,11.10
2022-09-28T16:54:40.094Z,11.00
2022-09-28T16:58:01.669Z,10.90
2022-09-28T17:01:23.667Z,10.80
2022-09-28T17:04:47.717Z,10.80
2022-09-28T17:08:13.252Z,10.70
2022-09-28T17:11:36.236Z,10.60
2022-09-28T17:14:57.773Z,10.50
2022-09-28T17:18:19.326Z,10.40
2022-09-28T17:21:40.917Z,10.30
2022-09-28T17:25:02.492Z,10.30
2022-09-28T17:28:26.218Z,10.20
2022-09-28T17:31:47.940Z,10.20
2022-09-28T17:35:23.714Z,10.10
2022-09-28T17:38:47.196Z,10.10
2022-09-28T17:42:08.739Z,10.00
2022-09-28T17:45:32.744Z,9.90
2022-09-28T17:48:54.939Z,9.80
2022-09-28T17:52:16.514Z,9.80
2022-09-28T17:55:41.124Z,9.80
2022-09-28T17:59:03.600Z,9.70
2022-09-28T18:02:32.220Z,9.70
2022-09-28T18:05:58.810Z,9.70
2022-09-28T18:09:20.407Z,9.60
2022-09-28T18:12:42.096Z,9.60
2022-09-28T18:16:04.397Z,9.50
2022-09-28T18:19:31.695Z,9.40
2022-09-28T18:22:53.848Z,9.30
2022-09-28T18:26:15.623Z,9.30
2022-09-28T18:29:38.416Z,9.20
2022-09-28T18:33:00.284Z,9.20
2022-09-28T18:40:00.514Z,9.10
2022-09-28T18:43:22.224Z,9.00
2022-09-28T18:46:44.173Z,9.00
2022-09-28T18:50:06.873Z,9.00
2022-09-28T18:53:33.169Z,9.00
2022-09-28T19:01:28.513Z,8.90
2022-09-28T19:16:56.343Z,8.80
2022-09-28T19:24:17.482Z,8.80
2022-09-28T19:27:39.386Z,8.70
2022-09-28T19:34:25.520Z,8.50
2022-09-28T19:38:09.387Z,8.50
2022-09-28T19:41:32.611Z,8.40
2022-09-28T19:44:54.310Z,8.40
2022-09-28T19:48:19.790Z,8.40
2022-09-28T19:55:40.689Z,8.40
2022-09-28T19:59:02.606Z,8.30
2022-09-28T20:02:24.199Z,8.30
2022-09-28T20:05:45.903Z,8.30
2022-09-28T20:09:07.845Z,8.30
2022-09-28T20:12:30.789Z,8.30
2022-09-28T20:15:52.407Z,8.40
2022-09-28T20:19:14.627Z,8.40
2022-09-28T20:22:37.042Z,8.40
2022-09-28T20:25:59.046Z,8.40
2022-09-28T20:29:21.979Z,8.50
2022-09-28T20:32:48.747Z,8.50
2022-09-28T20:36:12.617Z,8.50
2022-09-28T20:39:34.255Z,8.50
2022-09-28T20:42:55.811Z,8.40
2022-09-28T20:46:18.924Z,8.40
2022-09-28T20:49:40.503Z,8.50
2022-09-28T20:53:02.211Z,8.50
2022-09-28T20:56:24.547Z,8.40
2022-09-28T20:59:50.870Z,8.40
2022-09-28T21:03:16.638Z,8.30
2022-09-28T21:06:39.315Z,8.20
2022-09-28T21:10:00.942Z,8.10
2022-09-28T21:13:22.954Z,8.00
2022-09-28T21:16:44.539Z,7.90
2022-09-28T21:20:08.417Z,7.80
2022-09-28T21:23:29.960Z,7.80
2022-09-28T21:26:51.540Z,7.70
2022-09-28T21:30:13.530Z,7.70
2022-09-28T21:33:35.103Z,7.70
2022-09-28T21:36:58.009Z,7.70
2022-09-28T21:40:19.642Z,7.70
2022-09-28T21:43:41.408Z,7.70
2022-09-28T21:47:03.041Z,7.70
2022-09-28T21:50:25.506Z,7.70
2022-09-28T21:53:48.408Z,7.60
2022-09-28T21:57:10.401Z,7.60
2022-09-28T22:00:31.983Z,7.60
2022-09-28T22:03:54.324Z,7.60
2022-09-28T22:07:16.009Z,7.50
2022-09-28T22:10:38.945Z,7.40
2022-09-28T22:14:00.530Z,7.40
2022-09-28T22:17:22.147Z,7.30
2022-09-28T22:20:43.703Z,7.20
2022-09-28T22:24:06.330Z,7.10
2022-09-28T22:27:30.379Z,7.00
2022-09-28T22:30:51.982Z,7.00
2022-09-28T22:34:13.713Z,7.00
2022-09-28T22:37:35.316Z,6.90
2022-09-28T22:40:57.013Z,6.90
2022-09-28T22:44:20.259Z,6.80
2022-09-28T22:47:42.086Z,6.80
2022-09-28T22:51:04.154Z,6.90
2022-09-28T22:54:25.981Z,6.80
2022-09-28T22:57:47.525Z,6.70
2022-09-28T23:01:11.413Z,6.70
2022-09-28T23:04:33.011Z,6.70
2022-09-28T23:07:54.539Z,6.70
2022-09-28T23:11:16.168Z,6.60
2022-09-28T23:14:37.912Z,6.60
2022-09-28T23:18:00.900Z,6.60
2022-09-28T23:21:23.055Z,6.70
2022-09-28T23:24:44.623Z,6.80
2022-09-28T23:28:06.189Z,6.80
2022-09-28T23:31:28.781Z,6.90
2022-09-28T23:34:51.883Z,6.90
2022-09-28T23:38:14.189Z,6.90
2022-09-28T23:41:35.757Z,7.00
2022-09-28T23:44:57.313Z,7.20
2022-09-28T23:48:18.855Z,7.20
2022-09-28T23:51:41.771Z,7.40
2022-09-28T23:55:03.493Z,7.50
2022-09-28T23:58:25.217Z,7.50
